Terminal Aerodrome Forecast
Issued by NWS Louisville, KY

Home | Current Version | Previous Version | Text Only | Print | Product List | Glossary On
Versions: 1 2 3 4 5 6 7 8 9 10 11 12 13 14 15 16 17 18 19 20 21 22 23 24 25
000
FTUS43 KLMK 141700 CCA
TAFSDF
TAF COR
KSDF 141754Z 1418/1524 22012KT P6SM VCSH OVC015
     FM142200 32011KT P6SM -SHRA OVC015
     FM150600 32018G25KT P6SM -RASNPL OVC008
     FM150900 33015KT P6SM OVC022
     FM151600 33015KT P6SM BKN040=

USA.gov is the U.S. government's official web portal to all federal, state and local government web resources and services.